Time;durP1;ratioP1;P1;durP2;ratioP2;P2;SDS_P1;SDS_P2;PMS_P1;PMS_P2;Temp;Humidity;BMP_temperature;BMP_pressure;BME280_temperature;BME280_humidity;BME280_pressure;Samples;Min_cycle;Max_cycle;Signal;HPM_P1;HPM_P2
2022/07/18 00:00:17;;;;;;;6.23;2.50;;;20.30;49.80;;;;;;4991002;28;20482;-46
2022/07/18 00:02:43;;;;;;;2.10;1.67;;;20.20;49.60;;;;;;4987949;28;20465;-45
2022/07/18 00:05:10;;;;;;;1.83;1.30;;;20.20;49.70;;;;;;4987370;28;21011;-45
2022/07/18 00:07:37;;;;;;;2.10;1.60;;;20.20;49.50;;;;;;4986333;28;20492;-45
2022/07/18 00:10:04;;;;;;;3.60;1.80;;;20.20;49.40;;;;;;4985432;28;20461;-46
2022/07/18 00:12:31;;;;;;;3.40;1.60;;;20.10;49.70;;;;;;4986933;28;20473;-45
2022/07/18 00:14:58;;;;;;;1.47;0.93;;;20.10;49.50;;;;;;4987412;28;20465;-44
2022/07/18 00:17:25;;;;;;;4.50;1.80;;;20.10;49.70;;;;;;4986780;28;20465;-45
2022/07/18 00:19:52;;;;;;;2.33;1.70;;;20.00;49.90;;;;;;4985939;28;20507;-46
2022/07/18 00:22:19;;;;;;;2.60;1.10;;;20.00;49.80;;;;;;4987453;28;20549;-45
2022/07/18 00:24:46;;;;;;;4.07;1.30;;;20.00;50.10;;;;;;4987215;28;20468;-45
2022/07/18 00:27:12;;;;;;;2.10;1.67;;;20.00;50.30;;;;;;4988189;28;20488;-45
2022/07/18 00:29:39;;;;;;;1.63;1.40;;;19.90;50.10;;;;;;4985929;28;20465;-46
2022/07/18 00:32:08;;;;;;;1.60;1.40;;;19.90;50.10;;;;;;4982715;28;20465;-45
2022/07/18 00:34:35;;;;;;;2.70;1.50;;;19.90;50.00;;;;;;4987980;28;20996;-47
2022/07/18 00:37:03;;;;;;;3.37;1.30;;;19.90;50.00;;;;;;4972180;28;20468;-45
2022/07/18 00:39:29;;;;;;;2.00;1.30;;;19.90;50.40;;;;;;4986091;28;20465;-45
2022/07/18 00:41:56;;;;;;;2.10;1.30;;;19.90;50.50;;;;;;4985827;28;20475;-45
2022/07/18 00:44:26;;;;;;;2.60;1.70;;;19.80;50.70;;;;;;4971421;28;20496;-46
2022/07/18 00:46:55;;;;;;;1.83;1.37;;;19.80;50.90;;;;;;4984958;28;20481;-45
2022/07/18 00:49:23;;;;;;;2.00;1.50;;;19.80;50.90;;;;;;4968120;28;20497;-45
2022/07/18 00:51:50;;;;;;;2.00;1.80;;;19.80;51.10;;;;;;4985779;28;21041;-44
2022/07/18 00:54:17;;;;;;;2.70;1.27;;;19.70;50.90;;;;;;4981446;28;20465;-46
2022/07/18 00:56:46;;;;;;;2.97;1.73;;;19.70;50.90;;;;;;4985605;28;20473;-46
2022/07/18 00:59:13;;;;;;;1.87;1.40;;;19.70;51.00;;;;;;4985333;28;20483;-46
2022/07/18 01:01:45;;;;;;;3.80;1.83;;;19.70;51.10;;;;;;4968244;28;20576;-45
2022/07/18 01:04:22;;;;;;;3.60;1.73;;;19.70;51.20;;;;;;4983695;28;20580;-45
2022/07/18 01:06:51;;;;;;;3.97;1.50;;;19.60;50.90;;;;;;4990501;28;20514;-45
2022/07/18 01:09:18;;;;;;;5.23;1.43;;;19.60;50.80;;;;;;4988015;28;20803;-45
2022/07/18 01:11:47;;;;;;;1.73;1.63;;;19.60;51.10;;;;;;4989936;28;20463;-45
2022/07/18 01:14:14;;;;;;;4.53;1.63;;;19.50;51.20;;;;;;4976958;28;20539;-44
2022/07/18 01:16:41;;;;;;;2.13;1.50;;;19.50;51.20;;;;;;4966764;28;20477;-44
2022/07/18 01:19:10;;;;;;;1.57;1.33;;;19.50;51.30;;;;;;4971602;28;20561;-46
2022/07/18 01:21:37;;;;;;;1.27;1.13;;;19.40;51.40;;;;;;4990179;28;21023;-46
2022/07/18 01:24:04;;;;;;;1.80;1.60;;;19.40;51.60;;;;;;4987804;28;20468;-46
2022/07/18 01:26:31;;;;;;;4.90;1.43;;;19.30;51.50;;;;;;4989097;28;20491;-45
2022/07/18 01:28:59;;;;;;;2.47;1.27;;;19.30;51.40;;;;;;4986237;28;20466;-45
2022/07/18 01:31:26;;;;;;;3.83;1.40;;;19.30;51.60;;;;;;4974267;28;20869;-45
2022/07/18 01:33:56;;;;;;;3.70;2.10;;;19.30;51.70;;;;;;4988906;28;20464;-46
2022/07/18 01:36:22;;;;;;;2.07;1.33;;;19.20;51.60;;;;;;4989053;28;20479;-46
2022/07/18 01:38:49;;;;;;;1.40;1.30;;;19.20;51.70;;;;;;4985710;28;20481;-45
2022/07/18 01:41:16;;;;;;;1.80;1.53;;;19.20;51.90;;;;;;4987431;28;20461;-45
2022/07/18 01:43:44;;;;;;;2.43;1.37;;;19.20;52.30;;;;;;4971913;28;20479;-45
2022/07/18 01:46:11;;;;;;;2.57;1.47;;;19.10;52.50;;;;;;4987370;28;20954;-45
2022/07/18 01:48:40;;;;;;;2.60;1.30;;;19.10;52.70;;;;;;4987604;28;20469;-46
2022/07/18 01:51:10;;;;;;;3.87;1.60;;;19.10;52.80;;;;;;4989339;28;20479;-46
2022/07/18 01:53:42;;;;;;;4.07;1.60;;;19.10;52.90;;;;;;4989008;28;20961;-46
2022/07/18 01:56:12;;;;;;;3.50;1.40;;;19.00;52.80;;;;;;4985372;28;20469;-46
2022/07/18 01:58:39;;;;;;;2.20;1.50;;;19.00;53.00;;;;;;4986057;28;20462;-44
2022/07/18 02:01:06;;;;;;;1.77;1.30;;;18.90;53.10;;;;;;4968609;28;20473;-45
2022/07/18 02:03:33;;;;;;;2.90;1.30;;;18.90;53.40;;;;;;4987709;28;21065;-46
2022/07/18 02:05:59;;;;;;;3.30;1.60;;;18.90;53.20;;;;;;4971681;28;20493;-45
2022/07/18 02:08:26;;;;;;;4.10;1.53;;;18.90;53.30;;;;;;4987179;28;21028;-46
2022/07/18 02:10:53;;;;;;;1.77;1.30;;;18.90;53.40;;;;;;4987302;28;20472;-45
2022/07/18 02:13:21;;;;;;;1.60;1.50;;;18.90;53.20;;;;;;4973119;28;20452;-46
2022/07/18 02:15:48;;;;;;;2.23;1.60;;;18.90;53.50;;;;;;4971242;28;20457;-46
2022/07/18 02:18:15;;;;;;;1.33;1.20;;;18.80;53.40;;;;;;4987140;28;20970;-46
2022/07/18 02:20:42;;;;;;;2.83;1.23;;;18.80;53.40;;;;;;4986211;28;20476;-46
2022/07/18 02:23:08;;;;;;;3.50;1.60;;;18.80;53.30;;;;;;4986644;28;20472;-45
2022/07/18 02:25:36;;;;;;;3.23;1.60;;;18.80;53.50;;;;;;4969949;28;20465;-45
2022/07/18 02:28:03;;;;;;;1.47;1.00;;;18.80;53.60;;;;;;4987445;28;20493;-45
2022/07/18 02:30:30;;;;;;;3.93;1.40;;;18.70;53.80;;;;;;4989585;28;20457;-45
2022/07/18 02:32:57;;;;;;;2.00;1.60;;;18.70;54.00;;;;;;4988229;28;20475;-46
2022/07/18 02:35:24;;;;;;;3.23;1.57;;;18.70;54.10;;;;;;4986138;28;20479;-46
2022/07/18 02:37:52;;;;;;;2.00;1.20;;;18.70;54.00;;;;;;4987397;28;20479;-46
2022/07/18 02:40:19;;;;;;;2.80;1.47;;;18.70;54.10;;;;;;4985892;28;20552;-45
2022/07/18 02:42:46;;;;;;;1.70;1.43;;;18.60;54.20;;;;;;4988164;28;20477;-45
2022/07/18 02:45:13;;;;;;;2.30;1.50;;;18.60;54.30;;;;;;4986534;28;20970;-45
2022/07/18 02:47:40;;;;;;;2.00;1.47;;;18.60;54.40;;;;;;4988565;28;20499;-45
2022/07/18 02:50:09;;;;;;;2.27;1.40;;;18.60;54.40;;;;;;4987066;28;20985;-46
2022/07/18 02:52:36;;;;;;;2.13;1.43;;;18.60;54.40;;;;;;4972820;28;20497;-49
2022/07/18 02:55:04;;;;;;;4.23;1.30;;;18.60;54.60;;;;;;4988021;28;21017;-49
2022/07/18 02:57:30;;;;;;;2.47;1.33;;;18.60;54.70;;;;;;4985720;28;20795;-45
2022/07/18 02:59:57;;;;;;;2.07;1.60;;;18.60;54.80;;;;;;4987989;28;20477;-44
2022/07/18 03:02:24;;;;;;;2.47;1.20;;;18.60;54.80;;;;;;4987691;28;20588;-45
2022/07/18 03:04:51;;;;;;;2.80;1.40;;;18.50;54.90;;;;;;4970126;28;20843;-45
2022/07/18 03:07:18;;;;;;;2.77;1.83;;;18.50;54.70;;;;;;4985969;28;20488;-44
2022/07/18 03:09:45;;;;;;;1.90;1.27;;;18.40;54.80;;;;;;4984272;28;20843;-45
2022/07/18 03:12:12;;;;;;;1.87;1.70;;;18.40;55.10;;;;;;4984879;28;20917;-45
2022/07/18 03:14:38;;;;;;;3.00;1.60;;;18.40;55.10;;;;;;4970379;28;20548;-45
2022/07/18 03:17:05;;;;;;;1.50;1.40;;;18.40;55.30;;;;;;4984493;28;20467;-46
2022/07/18 03:19:32;;;;;;;4.90;1.67;;;18.40;55.40;;;;;;4988012;28;20556;-45
2022/07/18 03:21:59;;;;;;;2.43;1.67;;;18.40;55.70;;;;;;4989264;28;21211;-45
2022/07/18 03:24:26;;;;;;;2.77;1.60;;;18.40;55.40;;;;;;4969663;28;20472;-45
2022/07/18 03:26:53;;;;;;;1.40;1.30;;;18.30;55.30;;;;;;4988626;28;20881;-45
2022/07/18 03:29:20;;;;;;;2.73;1.30;;;18.30;55.40;;;;;;4985279;28;22243;-44
2022/07/18 03:31:47;;;;;;;2.87;1.30;;;18.30;55.10;;;;;;4986815;28;20961;-45
2022/07/18 03:34:14;;;;;;;2.23;1.40;;;18.20;55.30;;;;;;4985557;28;20834;-45
2022/07/18 03:36:41;;;;;;;2.63;1.57;;;18.20;55.20;;;;;;4969317;28;21208;-45
2022/07/18 03:39:09;;;;;;;2.63;1.63;;;18.20;55.30;;;;;;4985649;28;20474;-45
2022/07/18 03:41:37;;;;;;;3.93;1.47;;;18.20;55.50;;;;;;4983561;28;21033;-44
2022/07/18 03:44:05;;;;;;;2.80;2.03;;;18.10;55.60;;;;;;4985810;28;20458;-45
2022/07/18 03:46:33;;;;;;;5.57;2.00;;;18.10;55.80;;;;;;4986412;28;20907;-45
2022/07/18 03:49:00;;;;;;;2.10;1.53;;;18.10;55.70;;;;;;4986350;28;20493;-44
2022/07/18 03:51:27;;;;;;;2.40;2.00;;;18.10;55.60;;;;;;4968667;28;21004;-45
2022/07/18 03:53:54;;;;;;;2.80;1.50;;;18.10;55.90;;;;;;4985694;28;20460;-46
2022/07/18 03:56:21;;;;;;;3.00;1.70;;;18.00;56.10;;;;;;4967780;28;20473;-45
2022/07/18 03:58:47;;;;;;;1.63;1.40;;;18.00;56.20;;;;;;4986897;28;20477;-45
2022/07/18 04:01:14;;;;;;;2.40;1.80;;;18.00;56.30;;;;;;4986286;28;20919;-45
2022/07/18 04:03:41;;;;;;;2.63;1.50;;;18.00;56.30;;;;;;4982671;28;20881;-45
2022/07/18 04:06:08;;;;;;;7.03;1.40;;;18.00;56.40;;;;;;4984880;28;20469;-44
2022/07/18 04:08:35;;;;;;;1.73;1.50;;;18.00;56.40;;;;;;4968150;28;20497;-45
2022/07/18 04:11:02;;;;;;;1.53;1.43;;;18.00;56.70;;;;;;4985434;28;20461;-44
2022/07/18 04:13:29;;;;;;;1.70;1.60;;;17.90;56.60;;;;;;4967218;28;21034;-44
2022/07/18 04:15:55;;;;;;;2.30;1.60;;;18.00;57.00;;;;;;4967083;28;20463;-45
2022/07/18 04:18:22;;;;;;;1.50;1.30;;;18.00;56.90;;;;;;4982333;28;21205;-45
2022/07/18 04:20:49;;;;;;;3.53;1.67;;;18.00;56.80;;;;;;4986647;28;20910;-45
2022/07/18 04:23:18;;;;;;;2.10;1.70;;;18.00;56.80;;;;;;4986746;28;20867;-45
2022/07/18 04:25:45;;;;;;;1.53;1.40;;;18.00;56.80;;;;;;4982249;28;21263;-45
2022/07/18 04:28:13;;;;;;;2.57;1.63;;;18.00;57.00;;;;;;4982229;28;20488;-46
2022/07/18 04:30:41;;;;;;;1.97;1.50;;;18.00;57.00;;;;;;4987371;28;20467;-44
2022/07/18 04:33:10;;;;;;;3.23;1.60;;;18.00;57.20;;;;;;4986374;28;20481;-45
2022/07/18 04:35:39;;;;;;;1.73;1.60;;;18.00;57.50;;;;;;4969979;28;20471;-45
2022/07/18 04:38:07;;;;;;;1.97;1.37;;;18.00;57.50;;;;;;4984361;28;20465;-45
2022/07/18 04:40:35;;;;;;;1.70;1.57;;;18.00;57.90;;;;;;4988185;28;20456;-45
2022/07/18 04:43:02;;;;;;;4.40;1.83;;;18.00;58.10;;;;;;4989921;28;20884;-45
2022/07/18 04:45:29;;;;;;;3.10;1.63;;;18.00;58.00;;;;;;4989841;28;20461;-46
2022/07/18 04:47:56;;;;;;;1.50;1.40;;;18.10;58.00;;;;;;4976770;28;20500;-46
2022/07/18 04:50:24;;;;;;;2.60;1.70;;;18.10;58.00;;;;;;4987195;28;20453;-46
2022/07/18 04:52:52;;;;;;;1.50;1.40;;;18.10;58.50;;;;;;4986189;28;20492;-46
2022/07/18 04:55:21;;;;;;;2.63;1.70;;;18.20;58.50;;;;;;4972914;28;20467;-45
2022/07/18 04:57:49;;;;;;;5.63;2.80;;;18.20;58.60;;;;;;4989011;28;20465;-45
2022/07/18 05:00:18;;;;;;;3.13;1.77;;;18.20;58.80;;;;;;4990287;28;20479;-45
2022/07/18 05:02:48;;;;;;;3.90;1.47;;;18.20;58.50;;;;;;4989441;28;20832;-45
2022/07/18 05:05:17;;;;;;;5.70;1.93;;;18.30;58.40;;;;;;4967943;28;20461;-45
2022/07/18 05:07:45;;;;;;;4.13;1.90;;;18.30;58.30;;;;;;4989115;28;20491;-45
2022/07/18 05:10:14;;;;;;;5.30;2.13;;;18.40;58.40;;;;;;4987161;28;20521;-45
2022/07/18 05:12:43;;;;;;;6.87;1.93;;;18.40;58.60;;;;;;4967903;28;20456;-45
2022/07/18 05:15:12;;;;;;;9.67;2.47;;;18.50;58.70;;;;;;4986664;28;20467;-45
2022/07/18 05:17:40;;;;;;;7.80;1.73;;;18.50;58.60;;;;;;4983708;28;20843;-44
2022/07/18 05:20:09;;;;;;;7.97;1.80;;;18.60;58.70;;;;;;4986857;28;20836;-45
2022/07/18 05:22:37;;;;;;;10.93;2.60;;;18.70;58.30;;;;;;4989745;28;20461;-46
2022/07/18 05:25:05;;;;;;;8.17;1.80;;;18.70;58.30;;;;;;4973674;28;20824;-45
2022/07/18 05:27:32;;;;;;;5.57;1.90;;;18.80;58.40;;;;;;4984113;28;20488;-45
2022/07/18 05:29:59;;;;;;;5.23;1.87;;;18.80;58.60;;;;;;4971344;28;20459;-45
2022/07/18 05:32:26;;;;;;;13.10;2.33;;;18.90;59.00;;;;;;4988430;28;20997;-45
2022/07/18 05:34:53;;;;;;;6.70;2.30;;;18.90;58.90;;;;;;4987341;28;20466;-45
2022/07/18 05:37:21;;;;;;;7.03;2.67;;;19.00;59.00;;;;;;4990171;28;20552;-45
2022/07/18 05:39:50;;;;;;;8.20;2.20;;;19.10;58.50;;;;;;4987860;28;20469;-46
2022/07/18 05:42:17;;;;;;;8.93;2.10;;;19.20;57.90;;;;;;4988821;28;20973;-45
2022/07/18 05:45:05;;;;;;;8.20;1.90;;;19.20;57.90;;;;;;4988876;28;21012;-44
2022/07/18 05:47:32;;;;;;;6.20;1.70;;;19.30;57.90;;;;;;4989858;28;20977;-45
2022/07/18 05:49:58;;;;;;;4.47;3.17;;;19.30;57.80;;;;;;4989770;28;20471;-44
2022/07/18 05:52:25;;;;;;;8.03;1.70;;;19.40;57.70;;;;;;4972274;28;20465;-45
2022/07/18 05:54:52;;;;;;;9.00;1.80;;;19.50;57.70;;;;;;4971490;28;20970;-45
2022/07/18 05:57:19;;;;;;;4.27;1.67;;;19.50;57.60;;;;;;4988506;28;20473;-45
2022/07/18 05:59:46;;;;;;;3.47;1.40;;;19.60;57.20;;;;;;4990099;28;20453;-45
2022/07/18 06:02:13;;;;;;;4.30;1.70;;;19.70;56.40;;;;;;4989931;28;20454;-45
2022/07/18 06:04:40;;;;;;;3.83;1.70;;;19.90;55.20;;;;;;4987301;28;20488;-45
2022/07/18 06:07:26;;;;;;;6.80;2.17;;;20.00;54.60;;;;;;4988884;28;20456;-45
2022/07/18 06:09:53;;;;;;;3.37;1.63;;;20.10;54.40;;;;;;4989492;28;20487;-45
2022/07/18 06:12:21;;;;;;;4.40;1.77;;;20.20;54.40;;;;;;4991096;28;20967;-49
2022/07/18 06:14:48;;;;;;;7.10;1.73;;;20.30;53.80;;;;;;4969628;28;20470;-46
2022/07/18 06:17:14;;;;;;;2.70;1.10;;;20.30;53.40;;;;;;4969826;28;20989;-45
2022/07/18 06:19:41;;;;;;;5.13;1.70;;;20.40;54.10;;;;;;4987752;28;20472;-45
2022/07/18 06:22:09;;;;;;;3.23;1.30;;;20.50;53.80;;;;;;4988711;28;20471;-46
2022/07/18 06:24:35;;;;;;;1.77;1.67;;;20.50;53.30;;;;;;4987940;28;20469;-46
2022/07/18 06:27:02;;;;;;;3.20;1.60;;;20.60;53.40;;;;;;4989427;28;20970;-46
2022/07/18 06:29:29;;;;;;;2.43;1.80;;;20.60;52.80;;;;;;4972297;28;20488;-45
2022/07/18 06:31:56;;;;;;;5.10;1.77;;;20.70;52.10;;;;;;4988621;28;20465;-49
2022/07/18 06:34:23;;;;;;;5.33;1.50;;;20.80;51.50;;;;;;4997684;28;20453;-45
2022/07/18 06:36:50;;;;;;;2.77;1.33;;;20.90;51.90;;;;;;4971216;28;20489;-45
2022/07/18 06:39:18;;;;;;;2.93;1.17;;;21.10;51.10;;;;;;4989637;28;20465;-44
2022/07/18 06:41:45;;;;;;;2.00;1.40;;;21.20;50.70;;;;;;4989397;28;20536;-45
2022/07/18 06:44:12;;;;;;;2.10;1.90;;;21.30;51.00;;;;;;4988358;28;20469;-49
2022/07/18 06:46:39;;;;;;;2.40;1.90;;;21.50;50.70;;;;;;4988308;28;20483;-49
2022/07/18 06:49:06;;;;;;;4.30;1.73;;;21.60;50.00;;;;;;4998148;28;20489;-48
2022/07/18 06:51:33;;;;;;;4.03;2.43;;;21.70;48.80;;;;;;4985429;28;20924;-43
2022/07/18 06:54:00;;;;;;;2.47;1.63;;;21.90;46.70;;;;;;4971060;28;20469;-45
2022/07/18 06:56:27;;;;;;;2.30;1.87;;;22.10;46.80;;;;;;5003043;28;21021;-49
2022/07/18 06:58:54;;;;;;;2.47;1.37;;;22.30;46.70;;;;;;5002251;28;20459;-49
2022/07/18 07:01:21;;;;;;;2.70;2.23;;;22.40;46.60;;;;;;5000654;28;20460;-49
2022/07/18 07:03:48;;;;;;;1.97;1.23;;;22.60;45.90;;;;;;5004511;28;20473;-49
2022/07/18 07:06:15;;;;;;;7.80;5.33;;;22.70;45.90;;;;;;5000622;28;20457;-49
2022/07/18 07:08:43;;;;;;;5.00;2.77;;;22.90;46.10;;;;;;4984009;28;21146;-49
2022/07/18 07:11:10;;;;;;;5.63;2.10;;;23.10;45.70;;;;;;4997695;28;20457;-49
2022/07/18 07:13:37;;;;;;;5.40;1.90;;;23.20;45.10;;;;;;5001286;28;20525;-49
2022/07/18 07:16:04;;;;;;;6.60;2.90;;;23.40;44.20;;;;;;4999513;28;20485;-49
2022/07/18 07:18:31;;;;;;;3.63;1.87;;;23.50;44.50;;;;;;5002820;28;20596;-49
2022/07/18 07:20:59;;;;;;;7.00;2.33;;;23.70;44.10;;;;;;5002122;28;20532;-49
2022/07/18 07:23:26;;;;;;;1.67;1.40;;;23.80;44.00;;;;;;5002807;28;20484;-49
2022/07/18 07:25:54;;;;;;;3.80;2.10;;;23.90;44.10;;;;;;4985166;28;20465;-49
2022/07/18 07:28:21;;;;;;;4.87;1.80;;;24.10;44.00;;;;;;5001253;28;20484;-49
2022/07/18 07:30:48;;;;;;;5.73;2.17;;;24.20;43.70;;;;;;5001023;28;20467;-49
2022/07/18 07:33:14;;;;;;;4.20;1.90;;;24.40;43.20;;;;;;5001319;28;20522;-49
2022/07/18 07:35:42;;;;;;;6.20;1.77;;;24.50;42.60;;;;;;5001905;28;20559;-50
2022/07/18 07:38:10;;;;;;;6.97;1.97;;;24.70;42.00;;;;;;4999217;28;20478;-50
2022/07/18 07:40:37;;;;;;;5.00;2.40;;;24.80;41.10;;;;;;4982582;28;20488;-50
2022/07/18 07:43:16;;;;;;;7.23;1.93;;;25.00;41.00;;;;;;5002687;28;20455;-49
2022/07/18 07:45:47;;;;;;;6.10;2.33;;;25.20;40.50;;;;;;5003079;28;20507;-50
2022/07/18 07:48:14;;;;;;;8.80;2.13;;;25.30;40.80;;;;;;5000535;28;20480;-49
2022/07/18 07:50:41;;;;;;;2.50;1.80;;;25.50;41.10;;;;;;5002629;28;20460;-49
2022/07/18 07:53:08;;;;;;;9.60;2.20;;;25.70;40.80;;;;;;5001989;28;20532;-49
2022/07/18 07:55:35;;;;;;;3.27;1.43;;;25.90;38.80;;;;;;5001490;28;20457;-50
2022/07/18 07:58:04;;;;;;;3.40;1.40;;;26.00;38.50;;;;;;5000327;28;20919;-49
2022/07/18 08:00:32;;;;;;;5.20;1.40;;;26.20;37.80;;;;;;4998965;28;20457;-49
2022/07/18 08:03:01;;;;;;;3.93;2.07;;;26.40;37.40;;;;;;4985946;28;20461;-50
2022/07/18 08:05:30;;;;;;;2.83;1.40;;;26.60;36.30;;;;;;5001994;28;21112;-50
2022/07/18 08:07:58;;;;;;;2.30;1.37;;;26.80;36.20;;;;;;4987108;28;20920;-49
2022/07/18 08:10:25;;;;;;;1.90;1.50;;;27.00;36.80;;;;;;5002859;28;20821;-49
2022/07/18 08:12:52;;;;;;;3.27;1.53;;;27.10;36.80;;;;;;5003813;28;20483;-49
2022/07/18 08:15:19;;;;;;;5.27;1.40;;;27.30;36.30;;;;;;5005888;28;20486;-50
2022/07/18 08:17:46;;;;;;;6.33;1.90;;;27.40;35.80;;;;;;5008123;28;20566;-49
2022/07/18 08:20:16;;;;;;;3.10;1.60;;;27.50;36.20;;;;;;4989911;28;20448;-49
2022/07/18 08:23:00;;;;;;;1.93;1.77;;;27.70;35.40;;;;;;5003352;28;20929;-49
2022/07/18 08:25:28;;;;;;;2.37;1.60;;;27.90;35.30;;;;;;5006219;28;20205;-50
2022/07/18 08:27:56;;;;;;;3.23;1.50;;;28.00;36.00;;;;;;5007181;28;20691;-49
2022/07/18 08:30:23;;;;;;;3.10;2.00;;;28.10;35.40;;;;;;5005824;28;20344;-49
2022/07/18 08:32:50;;;;;;;8.00;1.50;;;28.30;34.60;;;;;;5003827;28;20304;-50
2022/07/18 08:35:17;;;;;;;3.40;1.40;;;28.50;33.00;;;;;;4987919;28;20292;-49
2022/07/18 08:37:45;;;;;;;2.77;1.63;;;28.60;33.00;;;;;;5004277;28;20289;-47
2022/07/18 08:40:12;;;;;;;4.30;1.50;;;28.80;33.30;;;;;;5006857;28;20210;-48
2022/07/18 08:42:40;;;;;;;2.87;1.77;;;28.90;32.80;;;;;;4988472;28;20240;-48
2022/07/18 08:45:27;;;;;;;3.37;1.80;;;29.10;32.60;;;;;;5005373;28;21163;-48
2022/07/18 08:47:54;;;;;;;5.55;1.85;;;29.20;32.70;;;;;;5005018;28;20659;-48
2022/07/18 08:50:21;;;;;;;4.33;2.33;;;29.40;32.40;;;;;;4985168;28;20313;-49
2022/07/18 08:52:49;;;;;;;2.80;1.42;;;29.50;32.50;;;;;;5005933;28;20216;-49
2022/07/18 08:55:21;;;;;;;4.05;1.60;;;29.60;32.50;;;;;;5001556;28;20206;-49
2022/07/18 08:57:53;;;;;;;8.15;1.80;;;29.80;33.40;;;;;;5002671;28;20264;-49
2022/07/18 09:00:21;;;;;;;2.45;1.20;;;29.90;32.20;;;;;;5001758;28;20208;-49
2022/07/18 09:03:02;;;;;;;4.20;1.33;;;30.00;32.00;;;;;;5002450;28;20249;-48
2022/07/18 09:05:31;;;;;;;5.43;1.42;;;30.10;32.30;;;;;;5003363;28;20570;-49
2022/07/18 09:08:19;;;;;;;2.63;1.65;;;30.30;32.10;;;;;;4986219;28;20209;-49
2022/07/18 09:10:50;;;;;;;2.17;1.67;;;30.40;31.60;;;;;;4987960;28;20209;-48
2022/07/18 09:13:29;;;;;;;2.38;1.58;;;30.50;30.40;;;;;;5004702;28;20229;-49
2022/07/18 09:16:06;;;;;;;2.50;1.60;;;30.70;30.60;;;;;;5003126;28;20323;-49
2022/07/18 09:18:42;;;;;;;1.92;1.00;;;30.80;30.40;;;;;;4986207;28;20274;-49
2022/07/18 09:21:18;;;;;;;5.00;1.15;;;30.90;29.50;;;;;;5002732;28;20236;-49
2022/07/18 09:23:49;;;;;;;4.47;1.77;;;31.10;28.90;;;;;;4987220;28;20208;-49
2022/07/18 09:26:39;;;;;;;8.55;1.83;;;31.20;28.70;;;;;;5002079;28;20208;-49
2022/07/18 09:29:08;;;;;;;3.13;1.98;;;31.40;28.80;;;;;;5001625;28;20313;-49
2022/07/18 09:31:54;;;;;;;2.63;1.55;;;31.60;29.30;;;;;;5001600;28;20240;-49
2022/07/18 09:34:39;;;;;;;3.05;1.40;;;31.70;29.10;;;;;;5002292;28;20261;-49
2022/07/18 09:37:15;;;;;;;1.55;1.20;;;31.90;29.20;;;;;;5000908;28;20220;-49
2022/07/18 09:39:42;;;;;;;1.73;1.20;;;32.10;28.10;;;;;;5002508;28;20215;-48
2022/07/18 09:42:17;;;;;;;3.38;1.30;;;32.30;27.40;;;;;;5002357;28;20237;-49
2022/07/18 09:45:11;;;;;;;3.10;1.55;;;32.40;27.60;;;;;;5005520;28;20244;-48
2022/07/18 09:47:59;;;;;;;2.55;1.27;;;32.60;27.20;;;;;;4984615;28;20220;-49
2022/07/18 09:50:28;;;;;;;3.72;1.40;;;32.70;26.70;;;;;;5004994;28;20309;-49
2022/07/18 09:53:09;;;;;;;2.35;1.58;;;32.70;26.90;;;;;;5001548;28;20205;-49
2022/07/18 09:56:03;;;;;;;4.57;1.55;;;32.80;27.10;;;;;;4987839;28;20205;-49
2022/07/18 09:58:41;;;;;;;2.55;1.33;;;33.00;26.80;;;;;;5006688;28;20211;-48
2022/07/18 10:01:11;;;;;;;1.25;1.10;;;33.10;27.00;;;;;;4988032;28;20232;-49
2022/07/18 10:03:39;;;;;;;7.00;1.40;;;33.30;26.00;;;;;;5005083;28;20205;-49
2022/07/18 10:06:07;;;;;;;1.88;1.35;;;33.60;26.10;;;;;;5008016;28;20691;-49
2022/07/18 10:08:35;;;;;;;2.15;1.20;;;33.80;25.80;;;;;;5005328;28;20209;-48
2022/07/18 10:11:05;;;;;;;1.30;1.13;;;34.00;25.30;;;;;;5007061;28;20228;-49
2022/07/18 10:13:34;;;;;;;3.83;1.90;;;34.20;25.70;;;;;;5007833;28;20288;-49
2022/07/18 10:16:02;;;;;;;3.03;1.70;;;34.40;25.50;;;;;;5005886;28;20225;-49
2022/07/18 10:18:32;;;;;;;2.63;1.30;;;34.60;24.40;;;;;;5007806;28;20221;-49
2022/07/18 10:21:09;;;;;;;1.45;1.35;;;34.70;24.00;;;;;;5007014;28;20296;-49
2022/07/18 10:23:41;;;;;;;3.95;1.17;;;34.90;23.70;;;;;;5006324;28;20269;-49
2022/07/18 10:26:11;;;;;;;1.40;1.30;;;35.00;23.90;;;;;;4989958;28;20205;-49
2022/07/18 10:28:57;;;;;;;2.83;1.30;;;35.10;23.50;;;;;;5003645;28;20236;-49
2022/07/18 10:31:38;;;;;;;4.78;1.10;;;35.20;23.80;;;;;;5005401;28;20197;-49
2022/07/18 10:34:06;;;;;;;3.47;1.63;;;35.10;23.50;;;;;;5005150;28;20201;-49
2022/07/18 10:36:38;;;;;;;2.10;1.15;;;35.10;23.70;;;;;;4989062;28;20230;-49
2022/07/18 10:39:07;;;;;;;1.58;1.17;;;35.00;23.50;;;;;;5005202;28;20280;-49
2022/07/18 10:41:39;;;;;;;1.85;1.50;;;34.90;23.50;;;;;;5003949;28;20213;-49
2022/07/18 10:44:25;;;;;;;1.52;1.23;;;34.60;23.70;;;;;;5004593;28;20210;-49
2022/07/18 10:47:08;;;;;;;1.92;1.20;;;34.50;24.50;;;;;;5006059;28;20686;-49
2022/07/18 10:49:47;;;;;;;3.15;1.50;;;34.30;24.60;;;;;;5005525;28;20214;-49
2022/07/18 10:52:33;;;;;;;4.05;1.10;;;34.00;24.90;;;;;;4999670;28;20216;-49
2022/07/18 10:55:03;;;;;;;3.35;1.40;;;33.80;25.40;;;;;;4994881;28;20205;-49
2022/07/18 10:57:40;;;;;;;1.80;1.15;;;33.50;25.30;;;;;;4994243;28;20256;-49
2022/07/18 11:00:13;;;;;;;1.30;1.10;;;33.40;25.10;;;;;;4996402;28;20216;-49
2022/07/18 11:02:39;;;;;;;1.42;1.05;;;33.30;25.10;;;;;;4971504;28;20209;-49
2022/07/18 11:05:25;;;;;;;1.55;1.05;;;33.10;24.90;;;;;;4995117;28;20352;-49
2022/07/18 11:07:58;;;;;;;1.52;1.15;;;32.70;25.60;;;;;;4991674;28;20213;-49
2022/07/18 11:11:01;;;;;;;1.55;1.15;;;32.40;26.10;;;;;;4994796;28;20225;-49
2022/07/18 11:16:05;;;;;;;1.50;1.13;;;32.00;26.30;;;;;;4995956;28;20224;-50
2022/07/18 11:18:33;;;;;;;3.88;1.40;;;31.90;26.70;;;;;;4994817;28;20212;-50
2022/07/18 11:20:59;;;;;;;2.08;1.50;;;31.80;26.90;;;;;;4973497;28;20217;-50
2022/07/18 11:23:27;;;;;;;1.35;1.17;;;31.70;27.10;;;;;;4976539;28;20201;-50
2022/07/18 11:26:03;;;;;;;1.35;1.25;;;31.60;26.90;;;;;;4993811;28;20240;-49
2022/07/18 11:28:30;;;;;;;1.63;1.00;;;31.50;26.60;;;;;;4976024;28;20210;-50
2022/07/18 11:31:05;;;;;;;1.52;1.20;;;31.30;26.60;;;;;;4996891;28;20239;-49
2022/07/18 11:33:35;;;;;;;2.50;1.40;;;31.30;27.20;;;;;;4990292;28;20221;-49
2022/07/18 11:36:10;;;;;;;1.70;1.05;;;31.20;27.10;;;;;;4979441;28;20239;-49
2022/07/18 11:38:39;;;;;;;1.23;1.13;;;31.00;26.70;;;;;;4996383;28;20197;-50
2022/07/18 11:41:07;;;;;;;2.25;1.67;;;30.90;26.90;;;;;;4980925;28;20206;-50
2022/07/18 11:43:34;;;;;;;9.60;1.33;;;30.80;27.80;;;;;;4979783;28;20766;-49
2022/07/18 11:46:02;;;;;;;1.88;1.30;;;30.80;28.00;;;;;;4995762;28;20216;-50
2022/07/18 11:48:29;;;;;;;1.40;1.23;;;30.80;27.80;;;;;;4994167;28;20292;-50
2022/07/18 11:50:56;;;;;;;1.33;1.23;;;30.80;27.80;;;;;;4980628;28;20239;-49
2022/07/18 11:53:23;;;;;;;2.05;1.40;;;30.80;27.40;;;;;;4993626;28;20213;-50
2022/07/18 11:55:50;;;;;;;1.63;1.42;;;30.90;27.40;;;;;;4978823;28;20812;-50
2022/07/18 11:58:18;;;;;;;3.08;1.83;;;30.90;27.30;;;;;;4993774;28;20201;-50
2022/07/18 12:00:46;;;;;;;1.98;1.13;;;30.90;27.20;;;;;;4990119;28;20216;-50
2022/07/18 12:03:20;;;;;;;1.58;1.10;;;30.90;27.10;;;;;;4980368;28;20245;-50
2022/07/18 12:05:52;;;;;;;6.22;1.50;;;31.00;27.50;;;;;;4996222;28;20213;-50
2022/07/18 12:08:38;;;;;;;1.55;1.17;;;30.90;27.40;;;;;;4964501;28;20510;-50
2022/07/18 12:11:17;;;;;;;1.80;1.30;;;30.90;27.30;;;;;;4996244;28;20266;-50
2022/07/18 12:13:50;;;;;;;1.60;0.80;;;31.00;27.00;;;;;;4996063;28;20201;-50
2022/07/18 12:16:45;;;;;;;2.70;1.60;;;31.00;27.40;;;;;;4996468;28;20202;-50
2022/07/18 12:19:12;;;;;;;2.97;1.27;;;31.00;27.30;;;;;;4993413;28;20233;-50
2022/07/18 12:21:46;;;;;;;1.88;1.10;;;31.00;27.70;;;;;;4995344;28;20750;-50
2022/07/18 12:24:28;;;;;;;1.63;1.45;;;31.00;27.50;;;;;;4993713;28;20206;-50
2022/07/18 12:27:33;;;;;;;5.18;1.50;;;31.00;27.40;;;;;;4993703;28;20201;-50
2022/07/18 12:30:08;;;;;;;5.10;1.50;;;31.00;27.60;;;;;;4990455;28;20260;-50
2022/07/18 12:32:45;;;;;;;2.40;1.35;;;31.00;27.60;;;;;;4997658;28;20211;-50
2022/07/18 12:35:14;;;;;;;1.40;1.10;;;30.90;27.10;;;;;;4995969;28;20307;-50
2022/07/18 12:37:42;;;;;;;1.38;1.17;;;30.90;27.20;;;;;;4995746;28;20213;-50
2022/07/18 12:40:12;;;;;;;1.70;1.00;;;31.00;26.90;;;;;;4980073;28;20240;-50
2022/07/18 12:43:03;;;;;;;1.25;1.15;;;31.00;26.90;;;;;;4996493;28;20243;-50
2022/07/18 12:45:30;;;;;;;3.25;1.23;;;31.00;27.30;;;;;;4996582;28;20277;-50
2022/07/18 12:47:58;;;;;;;3.58;1.20;;;31.10;27.10;;;;;;4995039;28;20299;-50
2022/07/18 12:50:25;;;;;;;4.28;1.60;;;31.10;26.60;;;;;;4996736;28;20320;-50
2022/07/18 12:52:52;;;;;;;1.65;1.10;;;31.10;26.90;;;;;;4979217;28;20300;-50
2022/07/18 12:55:19;;;;;;;3.53;1.55;;;31.20;27.00;;;;;;4975488;28;20281;-50
2022/07/18 12:57:46;;;;;;;2.08;1.02;;;31.20;27.20;;;;;;4994276;28;20201;-50
2022/07/18 13:00:13;;;;;;;2.22;1.17;;;31.20;26.50;;;;;;4996356;28;20308;-50
2022/07/18 13:02:45;;;;;;;3.92;1.33;;;31.30;27.20;;;;;;4981942;28;21215;-50